createdAt,value
2022-11-13T00:01:20.973Z,9.28
2022-11-13T00:03:49.263Z,9.08
2022-11-13T00:06:18.183Z,10.32
2022-11-13T00:08:46.555Z,9.78
2022-11-13T00:11:18.091Z,9.45
2022-11-13T00:13:47.081Z,9.68
2022-11-13T00:16:17.024Z,9.53
2022-11-13T00:18:45.576Z,10.10
2022-11-13T00:21:15.102Z,11.68
2022-11-13T00:23:43.967Z,7.60
2022-11-13T00:26:14.118Z,11.48
2022-11-13T00:28:42.614Z,11.53
2022-11-13T00:31:11.414Z,11.80
2022-11-13T00:34:05.336Z,13.30
2022-11-13T00:36:11.342Z,10.98
2022-11-13T00:38:39.574Z,9.75
2022-11-13T00:41:07.814Z,9.40
2022-11-13T00:43:37.558Z,11.30
2022-11-13T00:46:06.448Z,7.80
2022-11-13T00:48:34.841Z,8.95
2022-11-13T00:51:03.622Z,9.00
2022-11-13T00:53:31.818Z,9.35
2022-11-13T00:56:00.436Z,8.28
2022-11-13T00:58:29.118Z,7.95
2022-11-13T01:00:58.945Z,9.73
2022-11-13T01:03:27.151Z,9.80
2022-11-13T01:05:55.386Z,8.78
2022-11-13T01:08:23.608Z,8.50
2022-11-13T01:10:53.678Z,9.38
2022-11-13T01:13:21.751Z,8.58
2022-11-13T01:15:49.963Z,9.83
2022-11-13T01:18:18.196Z,8.85
2022-11-13T01:20:46.403Z,10.40
2022-11-13T01:23:14.609Z,6.80
2022-11-13T01:25:42.775Z,11.63
2022-11-13T01:28:10.965Z,8.15
2022-11-13T01:30:40.029Z,9.55
2022-11-13T01:33:08.243Z,7.37
2022-11-13T01:35:36.432Z,9.65
2022-11-13T01:38:04.633Z,9.50
2022-11-13T01:40:32.852Z,8.80
2022-11-13T01:43:02.610Z,11.60
2022-11-13T01:45:50.316Z,9.03
2022-11-13T01:48:18.507Z,8.28
2022-11-13T01:50:46.722Z,7.53
2022-11-13T01:53:15.090Z,8.60
2022-11-13T01:55:43.679Z,7.35
2022-11-13T01:58:12.341Z,8.68
2022-11-13T02:00:40.583Z,7.72
2022-11-13T02:03:08.798Z,7.53
2022-11-13T02:05:37.003Z,9.80
2022-11-13T02:08:05.286Z,7.03
2022-11-13T02:10:33.500Z,7.17
2022-11-13T02:13:02.082Z,7.87
2022-11-13T02:15:31.885Z,9.58
2022-11-13T02:18:01.574Z,7.55
2022-11-13T02:20:43.483Z,7.53
2022-11-13T02:23:16.127Z,7.45
2022-11-13T02:28:11.894Z,7.40
2022-11-13T02:30:40.098Z,6.47
2022-11-13T02:33:38.250Z,6.83
2022-11-13T02:36:07.404Z,8.13
2022-11-13T02:38:36.880Z,9.30
2022-11-13T02:41:05.160Z,6.22
2022-11-13T02:43:33.415Z,7.37
2022-11-13T02:46:01.687Z,5.90
2022-11-13T02:48:30.121Z,7.00
2022-11-13T02:50:58.594Z,8.48
2022-11-13T02:53:26.812Z,7.62
2022-11-13T02:55:55.024Z,9.03
2022-11-13T02:58:23.213Z,7.60
2022-11-13T03:00:51.487Z,10.10
2022-11-13T03:03:47.840Z,8.28
2022-11-13T03:05:50.109Z,7.83
2022-11-13T03:08:19.664Z,7.45
2022-11-13T03:10:47.876Z,7.75
2022-11-13T03:13:16.082Z,7.65
2022-11-13T03:15:44.279Z,10.45
2022-11-13T03:18:12.659Z,7.90
2022-11-13T03:20:42.359Z,8.25
2022-11-13T03:23:10.558Z,9.98
2022-11-13T03:25:38.762Z,9.23
2022-11-13T03:28:06.974Z,8.15
2022-11-13T03:30:35.171Z,8.48
2022-11-13T03:33:03.403Z,9.30
2022-11-13T03:35:36.314Z,7.95
2022-11-13T03:38:01.452Z,9.43
2022-11-13T03:40:29.674Z,8.40
2022-11-13T03:42:57.921Z,10.05
2022-11-13T03:45:26.102Z,14.50
2022-11-13T03:47:54.332Z,11.18
2022-11-13T03:50:26.963Z,11.75
2022-11-13T03:55:22.562Z,10.03
2022-11-13T03:57:50.751Z,10.32
2022-11-13T04:00:27.652Z,9.95
2022-11-13T04:02:55.851Z,10.60
2022-11-13T04:05:24.149Z,10.13
2022-11-13T04:07:55.475Z,13.83
2022-11-13T04:10:23.690Z,11.10
2022-11-13T04:12:57.389Z,9.88
2022-11-13T04:15:25.682Z,11.50
2022-11-13T04:17:53.864Z,9.73
2022-11-13T04:20:22.056Z,9.78
2022-11-13T04:22:50.260Z,11.18
2022-11-13T04:25:18.542Z,10.78
2022-11-13T04:27:46.752Z,10.18
2022-11-13T04:30:15.120Z,11.48
2022-11-13T04:32:43.335Z,11.53
2022-11-13T04:35:12.104Z,11.93
2022-11-13T04:37:40.318Z,9.05
2022-11-13T04:40:09.098Z,12.68
2022-11-13T04:42:49.227Z,10.60
2022-11-13T04:45:21.222Z,9.68
2022-11-13T04:47:49.793Z,10.58
2022-11-13T04:50:18.071Z,9.58
2022-11-13T04:52:46.430Z,9.70
2022-11-13T04:55:14.798Z,15.85
2022-11-13T04:57:43.197Z,9.20
2022-11-13T05:00:11.974Z,10.38
2022-11-13T05:02:40.160Z,9.93
2022-11-13T05:05:08.665Z,10.43
2022-11-13T05:07:37.524Z,9.20
2022-11-13T05:10:06.432Z,10.00
2022-11-13T05:12:34.663Z,9.65
2022-11-13T05:15:02.926Z,9.68
2022-11-13T05:17:34.210Z,8.93
2022-11-13T05:20:02.421Z,8.33
2022-11-13T05:22:32.920Z,9.55
2022-11-13T05:25:01.140Z,10.35
2022-11-13T05:27:29.332Z,10.63
2022-11-13T05:29:57.553Z,8.85
2022-11-13T05:32:25.831Z,9.43
2022-11-13T05:34:54.034Z,7.92
2022-11-13T05:37:22.232Z,12.05
2022-11-13T05:39:50.457Z,9.98
2022-11-13T05:42:18.673Z,9.23
2022-11-13T05:44:47.059Z,10.53
2022-11-13T05:47:15.255Z,10.80
2022-11-13T05:49:46.379Z,8.85
2022-11-13T05:52:14.589Z,10.28
2022-11-13T05:54:44.444Z,9.80
2022-11-13T05:57:12.645Z,9.40
2022-11-13T05:59:40.873Z,8.50
2022-11-13T06:02:09.182Z,10.20
2022-11-13T06:04:37.450Z,9.75
2022-11-13T06:07:05.668Z,11.97
2022-11-13T06:09:33.879Z,11.88
2022-11-13T06:12:02.075Z,9.13
2022-11-13T06:14:30.275Z,10.08
2022-11-13T06:16:58.648Z,11.08
2022-11-13T06:19:26.923Z,11.20
2022-11-13T06:21:55.110Z,10.58
2022-11-13T06:24:23.347Z,8.63
2022-11-13T06:26:51.543Z,7.17
2022-11-13T06:29:19.754Z,8.23
2022-11-13T06:31:47.950Z,9.93
2022-11-13T06:34:16.159Z,9.75
2022-11-13T06:36:44.365Z,9.38
2022-11-13T06:39:14.120Z,12.60
2022-11-13T06:41:42.457Z,9.30
2022-11-13T06:44:10.740Z,10.58
2022-11-13T06:46:41.642Z,9.43
2022-11-13T06:49:10.073Z,14.23
2022-11-13T06:51:38.250Z,9.70
2022-11-13T06:54:06.586Z,11.75
2022-11-13T06:56:34.834Z,11.88
2022-11-13T06:59:07.606Z,6.87
2022-11-13T07:01:32.976Z,10.18
2022-11-13T07:04:01.117Z,8.68
2022-11-13T07:06:29.311Z,10.93
2022-11-13T07:08:57.516Z,8.63
2022-11-13T07:11:25.759Z,9.10
2022-11-13T07:13:53.941Z,9.05
2022-11-13T07:16:22.186Z,11.10
2022-11-13T07:18:51.221Z,13.35
2022-11-13T07:21:40.269Z,7.70
2022-11-13T07:24:12.704Z,10.25
2022-11-13T07:26:38.441Z,10.80
2022-11-13T07:29:09.146Z,10.40
2022-11-13T07:31:40.331Z,13.85
2022-11-13T07:34:10.780Z,13.38
2022-11-13T07:36:39.715Z,9.75
2022-11-13T07:39:11.268Z,14.00
2022-11-13T07:41:40.099Z,8.98
2022-11-13T07:44:09.633Z,9.00
2022-11-13T07:46:38.905Z,7.87
2022-11-13T07:49:11.897Z,7.58
2022-11-13T07:51:43.800Z,8.65
2022-11-13T07:54:15.808Z,6.87
2022-11-13T07:56:45.853Z,8.20
2022-11-13T07:59:17.477Z,8.03
2022-11-13T08:01:45.981Z,7.45
2022-11-13T08:04:16.329Z,9.30
2022-11-13T08:09:34.349Z,6.95
2022-11-13T08:12:02.924Z,6.83
2022-11-13T08:14:38.472Z,6.62
2022-11-13T08:19:39.035Z,6.05
2022-11-13T08:22:10.706Z,6.90
2022-11-13T08:24:51.064Z,5.75
2022-11-13T08:27:22.123Z,6.92
2022-11-13T08:29:54.145Z,5.60
2022-11-13T08:32:33.050Z,4.83
2022-11-13T08:35:05.799Z,6.00
2022-11-13T08:40:07.782Z,4.65
2022-11-13T08:42:55.673Z,3.87
2022-11-13T08:45:28.040Z,4.33
2022-11-13T08:48:01.179Z,4.45
2022-11-13T08:50:39.678Z,5.42
2022-11-13T08:53:09.177Z,4.28
2022-11-13T08:55:36.843Z,6.20
2022-11-13T08:58:10.778Z,5.67
2022-11-13T09:00:38.998Z,5.05
2022-11-13T09:03:07.305Z,4.10
2022-11-13T09:05:48.556Z,4.60
2022-11-13T09:08:20.237Z,4.33
2022-11-13T09:10:50.048Z,5.03
2022-11-13T09:13:20.275Z,5.17
2022-11-13T09:15:54.905Z,4.58
2022-11-13T09:18:28.106Z,5.08
2022-11-13T09:21:06.883Z,4.22
2022-11-13T09:23:37.499Z,4.30
2022-11-13T09:26:08.874Z,5.50
2022-11-13T09:28:39.775Z,4.70
2022-11-13T09:31:10.013Z,8.60
2022-11-13T09:33:40.950Z,4.08
2022-11-13T09:36:21.092Z,6.47
2022-11-13T09:38:52.195Z,5.40
2022-11-13T09:41:55.041Z,4.80
2022-11-13T09:44:59.140Z,4.80
2022-11-13T09:47:28.873Z,4.47
2022-11-13T09:50:04.487Z,5.03
2022-11-13T09:52:37.033Z,5.22
2022-11-13T09:55:05.492Z,5.35
2022-11-13T09:57:50.249Z,7.30
2022-11-13T10:00:21.642Z,5.00
2022-11-13T10:03:00.092Z,4.87
2022-11-13T10:05:29.872Z,5.72
2022-11-13T10:08:02.680Z,6.85
2022-11-13T10:13:02.894Z,6.08
2022-11-13T10:18:20.794Z,5.05
2022-11-13T10:20:50.570Z,5.03
2022-11-13T10:23:35.351Z,10.80
2022-11-13T10:26:13.724Z,6.22
2022-11-13T10:28:51.443Z,9.10
2022-11-13T10:31:13.174Z,7.90
2022-11-13T10:33:41.576Z,19.37
2022-11-13T10:36:15.247Z,8.90
2022-11-13T10:38:51.094Z,7.65
2022-11-13T10:41:20.931Z,7.35
2022-11-13T10:44:03.132Z,7.60
2022-11-13T10:46:31.751Z,5.80
2022-11-13T10:49:04.071Z,6.42
2022-11-13T10:51:35.300Z,9.83
2022-11-13T10:54:05.999Z,4.17
2022-11-13T10:56:35.442Z,5.45
2022-11-13T10:59:14.010Z,4.72
2022-11-13T11:01:43.745Z,4.72
2022-11-13T11:04:13.522Z,3.20
2022-11-13T11:11:59.336Z,4.05
2022-11-13T11:14:29.111Z,4.15
2022-11-13T11:16:59.091Z,3.67
2022-11-13T11:19:28.846Z,4.53
2022-11-13T11:22:04.591Z,77.90
2022-11-13T11:24:34.389Z,9.10
2022-11-13T11:27:07.293Z,3.58
2022-11-13T11:29:38.358Z,3.08
2022-11-13T11:32:26.081Z,2.50
2022-11-13T11:35:07.871Z,2.40
2022-11-13T11:37:43.684Z,2.37
2022-11-13T11:40:25.652Z,2.47
2022-11-13T11:42:58.032Z,6.45
2022-11-13T11:45:29.486Z,3.30
2022-11-13T11:47:59.231Z,2.75
2022-11-13T11:50:46.225Z,2.55
2022-11-13T11:53:31.196Z,2.00
2022-11-13T11:56:04.017Z,2.67
2022-11-13T12:01:07.475Z,2.25
2022-11-13T12:03:37.373Z,1.60
2022-11-13T12:06:13.077Z,2.52
2022-11-13T12:08:51.775Z,2.27
2022-11-13T12:11:27.474Z,2.00
2022-11-13T12:13:57.213Z,1.80
2022-11-13T12:16:32.935Z,2.27
2022-11-13T12:19:08.637Z,2.33
2022-11-13T12:21:55.072Z,2.67
2022-11-13T12:24:36.890Z,3.20
2022-11-13T12:27:06.657Z,1.70
2022-11-13T12:29:36.409Z,3.22
2022-11-13T12:32:06.585Z,2.80
2022-11-13T12:34:36.352Z,1.90
2022-11-13T12:37:06.109Z,1.65
2022-11-13T12:39:35.856Z,3.12
2022-11-13T12:42:05.687Z,3.65
2022-11-13T12:44:35.657Z,1.67
2022-11-13T12:47:04.297Z,1.62
2022-11-13T12:49:33.864Z,1.50
2022-11-13T12:52:03.842Z,4.35
2022-11-13T12:54:33.728Z,3.08
2022-11-13T12:57:18.594Z,2.10
2022-11-13T12:59:51.568Z,1.72
2022-11-13T13:02:39.981Z,1.65
2022-11-13T13:05:10.580Z,2.33
2022-11-13T13:07:43.279Z,3.62
2022-11-13T13:10:19.143Z,3.15
2022-11-13T13:12:51.876Z,1.80
2022-11-13T13:17:56.845Z,2.40
2022-11-13T13:20:31.214Z,2.12
2022-11-13T13:23:07.238Z,3.02
2022-11-13T13:25:33.671Z,2.70
2022-11-13T13:28:06.434Z,2.02
2022-11-13T13:33:21.819Z,1.67
2022-11-13T13:35:54.598Z,3.05
2022-11-13T13:40:51.963Z,2.08
2022-11-13T13:43:25.848Z,1.75
2022-11-13T13:46:07.719Z,2.02
2022-11-13T13:48:37.455Z,1.80
2022-11-13T13:51:07.204Z,2.95
2022-11-13T13:53:36.771Z,1.72
2022-11-13T13:56:05.257Z,2.00
2022-11-13T13:58:34.845Z,2.75
2022-11-13T14:01:20.371Z,1.52
2022-11-13T14:03:35.597Z,3.22
2022-11-13T14:06:11.315Z,2.55
2022-11-13T14:08:39.921Z,1.77
2022-11-13T14:11:18.185Z,1.40
2022-11-13T14:13:46.432Z,1.92
2022-11-13T14:16:14.716Z,1.62
2022-11-13T14:18:43.430Z,2.77
2022-11-13T14:21:14.838Z,2.83
2022-11-13T14:23:44.828Z,1.90
2022-11-13T14:26:13.973Z,2.27
2022-11-13T14:28:59.098Z,3.42
2022-11-13T14:31:30.143Z,2.55
2022-11-13T14:34:02.017Z,2.87
2022-11-13T14:36:40.427Z,2.95
2022-11-13T14:39:10.239Z,3.47
2022-11-13T14:41:41.150Z,2.85
2022-11-13T14:44:17.353Z,1.82
2022-11-13T14:46:53.604Z,2.90
2022-11-13T14:49:31.781Z,2.67
2022-11-13T14:52:06.507Z,2.27
2022-11-13T14:57:13.083Z,5.75
2022-11-13T14:59:45.928Z,1.55
2022-11-13T15:04:48.419Z,3.00
2022-11-13T15:07:25.857Z,3.98
2022-11-13T15:10:04.924Z,3.40
2022-11-13T15:12:41.966Z,2.60
2022-11-13T15:15:15.992Z,3.05
2022-11-13T15:17:49.119Z,3.25
2022-11-13T15:20:29.713Z,2.85
2022-11-13T15:22:56.711Z,2.47
2022-11-13T15:25:32.352Z,5.62
2022-11-13T15:28:02.345Z,2.52
2022-11-13T15:30:43.774Z,2.05
2022-11-13T15:36:04.870Z,2.33
2022-11-13T15:38:33.204Z,4.53
2022-11-13T15:41:04.115Z,3.75
2022-11-13T15:43:33.451Z,3.02
2022-11-13T15:46:41.287Z,3.67
2022-11-13T15:49:11.007Z,13.25
2022-11-13T15:54:40.529Z,4.80
2022-11-13T15:57:10.359Z,3.45
2022-11-13T15:59:43.280Z,5.40
2022-11-13T16:02:13.087Z,5.58
2022-11-13T16:05:01.951Z,7.47
2022-11-13T16:07:31.709Z,4.42
2022-11-13T16:10:00.054Z,5.28
2022-11-13T16:12:30.241Z,6.70
2022-11-13T16:15:06.398Z,5.22
2022-11-13T16:17:38.419Z,10.82
2022-11-13T16:22:47.896Z,6.90
2022-11-13T16:25:25.139Z,7.53
2022-11-13T16:27:53.550Z,9.40
2022-11-13T16:30:28.999Z,4.15
2022-11-13T16:36:12.761Z,9.95
2022-11-13T16:38:44.702Z,6.25
2022-11-13T16:43:50.824Z,6.05
2022-11-13T16:46:22.717Z,6.05
2022-11-13T16:48:50.936Z,5.72
2022-11-13T16:51:21.784Z,5.37
2022-11-13T16:53:56.589Z,4.30
2022-11-13T16:56:35.590Z,3.52
2022-11-13T16:59:06.789Z,5.90
2022-11-13T17:04:27.872Z,8.18
2022-11-13T17:07:05.237Z,4.83
2022-11-13T17:09:32.810Z,4.53
2022-11-13T17:12:27.489Z,5.78
2022-11-13T17:15:00.012Z,3.37
2022-11-13T17:17:40.790Z,3.22
2022-11-13T17:20:09.526Z,3.33
2022-11-13T17:22:39.864Z,4.03
2022-11-13T17:25:08.205Z,4.45
2022-11-13T17:27:41.232Z,4.65
2022-11-13T17:30:10.381Z,4.12
2022-11-13T17:32:39.944Z,3.65
2022-11-13T17:35:09.345Z,2.87
2022-11-13T17:37:38.663Z,5.47
2022-11-13T17:40:07.654Z,9.75
2022-11-13T17:42:42.053Z,12.82
2022-11-13T17:45:10.196Z,9.85
2022-11-13T17:47:40.069Z,10.88
2022-11-13T17:50:10.518Z,12.88
2022-11-13T17:52:45.665Z,10.43
2022-11-13T17:55:41.818Z,13.70
2022-11-13T17:58:08.292Z,10.55
2022-11-13T18:00:40.190Z,13.15
2022-11-13T18:03:12.961Z,18.83
2022-11-13T18:05:53.190Z,20.85
2022-11-13T18:08:32.675Z,23.25
2022-11-13T18:11:11.174Z,17.42
2022-11-13T18:13:44.549Z,24.25
2022-11-13T18:16:23.760Z,22.13
2022-11-13T18:19:02.184Z,27.98
2022-11-13T18:21:40.754Z,23.92
2022-11-13T18:24:23.424Z,21.25
2022-11-13T18:26:55.120Z,20.82
2022-11-13T18:32:45.885Z,22.02
2022-11-13T18:35:22.050Z,14.73
2022-11-13T18:37:52.650Z,21.35
2022-11-13T18:40:29.892Z,18.00
2022-11-13T18:43:01.543Z,19.32
2022-11-13T18:48:28.315Z,15.43
2022-11-13T18:51:11.275Z,20.23
2022-11-13T18:53:47.273Z,13.68
2022-11-13T18:56:25.179Z,14.50
2022-11-13T18:59:00.215Z,13.15
2022-11-13T19:01:42.730Z,11.60
2022-11-13T19:04:25.708Z,8.13
2022-11-13T19:06:47.626Z,13.40
2022-11-13T19:09:29.799Z,14.70
2022-11-13T19:12:01.844Z,12.33
2022-11-13T19:14:40.024Z,10.98
2022-11-13T19:17:20.606Z,8.45
2022-11-13T19:20:03.758Z,9.03
2022-11-13T19:25:25.172Z,7.90
2022-11-13T19:28:02.455Z,13.25
2022-11-13T19:30:35.835Z,9.23
2022-11-13T19:33:16.308Z,12.95
2022-11-13T19:35:57.132Z,10.40
2022-11-13T19:38:29.186Z,8.95
2022-11-13T19:40:59.585Z,13.03
2022-11-13T19:43:32.152Z,27.42
2022-11-13T19:46:08.336Z,15.80
2022-11-13T19:48:40.720Z,21.77
2022-11-13T19:51:22.854Z,22.62
2022-11-13T19:54:04.109Z,45.00
2022-11-13T19:59:28.664Z,23.77
2022-11-13T20:02:14.526Z,22.65
2022-11-13T20:04:47.505Z,16.23
2022-11-13T20:07:20.563Z,18.50
2022-11-13T20:09:53.432Z,12.55
2022-11-13T20:12:44.992Z,17.62
2022-11-13T20:15:20.478Z,20.02
2022-11-13T20:23:49.349Z,18.82
2022-11-13T20:26:20.549Z,19.87
2022-11-13T20:28:53.348Z,16.95
2022-11-13T20:31:29.222Z,18.23
2022-11-13T20:34:08.138Z,14.38
2022-11-13T20:39:17.209Z,13.70
2022-11-13T20:41:50.327Z,16.15
2022-11-13T20:45:11.568Z,18.00
2022-11-13T20:47:43.981Z,15.65
2022-11-13T20:50:24.171Z,13.05
2022-11-13T20:53:13.391Z,14.43
2022-11-13T20:55:46.102Z,16.35
2022-11-13T21:00:42.293Z,14.87
2022-11-13T21:03:13.092Z,15.45
2022-11-13T21:05:43.385Z,17.20
2022-11-13T21:08:12.206Z,20.17
2022-11-13T21:10:46.688Z,14.95
2022-11-13T21:13:21.901Z,13.70
2022-11-13T21:15:59.270Z,14.23
2022-11-13T21:18:25.773Z,18.45
2022-11-13T21:21:04.989Z,14.75
2022-11-13T21:23:37.777Z,17.27
2022-11-13T21:26:10.749Z,17.95
2022-11-13T21:28:54.895Z,17.17
2022-11-13T21:31:34.193Z,15.60
2022-11-13T21:34:09.196Z,14.50
2022-11-13T21:36:44.097Z,15.38
2022-11-13T21:39:15.947Z,14.83
2022-11-13T21:41:52.807Z,15.67
2022-11-13T21:44:27.814Z,14.93
2022-11-13T21:47:11.950Z,17.37
2022-11-13T21:52:32.626Z,17.50
2022-11-13T21:55:11.823Z,16.70
2022-11-13T21:57:47.775Z,16.67
2022-11-13T22:00:10.900Z,15.13
2022-11-13T22:02:46.161Z,15.58
2022-11-13T22:05:22.154Z,14.15
2022-11-13T22:08:04.597Z,16.70
2022-11-13T22:10:35.574Z,16.27
2022-11-13T22:13:10.209Z,16.67
2022-11-13T22:15:44.893Z,14.07
2022-11-13T22:18:13.907Z,14.50
2022-11-13T22:20:44.725Z,14.15
2022-11-13T22:23:19.609Z,13.18
2022-11-13T22:25:52.416Z,13.38
2022-11-13T22:28:22.047Z,13.08
2022-11-13T22:30:53.385Z,12.35
2022-11-13T22:33:24.699Z,17.15
2022-11-13T22:35:54.914Z,13.00
2022-11-13T22:38:42.307Z,16.70
2022-11-13T22:41:23.827Z,13.95
2022-11-13T22:44:06.341Z,13.28
2022-11-13T22:46:42.504Z,14.85
2022-11-13T22:49:23.960Z,17.90
2022-11-13T22:51:58.373Z,16.30
2022-11-13T22:54:36.004Z,14.38
2022-11-13T22:57:11.666Z,13.43
2022-11-13T22:59:49.250Z,15.88
2022-11-13T23:02:17.748Z,16.20
2022-11-13T23:04:56.950Z,15.40
2022-11-13T23:07:33.358Z,18.48
2022-11-13T23:10:06.800Z,18.27
2022-11-13T23:12:37.721Z,17.17
2022-11-13T23:15:10.541Z,14.50
2022-11-13T23:17:45.632Z,15.03
2022-11-13T23:20:16.705Z,14.13
2022-11-13T23:22:49.785Z,16.40
2022-11-13T23:25:23.941Z,15.70
2022-11-13T23:27:54.492Z,14.70
2022-11-13T23:30:28.363Z,17.32
2022-11-13T23:33:04.789Z,15.65
2022-11-13T23:35:38.598Z,12.53
2022-11-13T23:38:07.519Z,13.10
2022-11-13T23:40:42.063Z,13.13
2022-11-13T23:43:08.226Z,12.60
2022-11-13T23:45:42.808Z,13.53
2022-11-13T23:48:13.273Z,16.00
2022-11-13T23:50:54.082Z,15.50
2022-11-13T23:53:27.896Z,14.93
2022-11-13T23:56:05.129Z,16.20
2022-11-13T23:58:47.299Z,15.05
